Halifax, North Carolina
Current Conditions -  °F | °C
As of 11:15 AM on Thursday 27 Nov 2014 (Local Time) from KIXA Reporting Station
Light Rain Light Rain  
Wind Chill: 36°   Ceiling: 1100
Heat Index: 39°   Visibility: 7mi
Dew Point: 39°   Wind: 5mph
Humidity: 100%   Direction: 10°N
Pressure: 30.04"   Gusts: NA
Location:  36.33°N, 77.59°W
Report Text: KIXA 271615Z AUTO 01004KT 7SM -RA SCT004 OVC011 04/04 A3004 RMK AO2
Loading
Personal Weather Stations






























Interactive Weather Map New forecast layout! Learn more

10-Day Weather Forecast

Advertisements
Track Severe Weather on mobile